Terminal Aerodrome Forecast
Issued by NWS

Home | Current Version | Previous Version | Text Only | Print | Product List | Glossary On
Versions: 1 2 3 4 5 6 7 8 9 10 11 12
696
FTUS46 KHNX 250521
TAFMER
TAF
KMER 250521Z 2506/2606 VRB04KT P6SM FEW250
     FM260000 VRB03KT P6SM OVC100=

USA.gov is the U.S. government's official web portal to all federal, state and local government web resources and services.